Metar z pełnej godziny Komunikat METAR ze strony awiacja.imgw.pl Metar G00 EPKK METAR EPKK 242000Z VRB01KT 6000 FEW068 12/11 Q1013 =